sensor_id;sensor_type;location;lat;lon;timestamp;P1;durP1;ratioP1;P2;durP2;ratioP2
7807;SDS011;3949;49.254;8.894;2022-12-07T00:01:42;9.40;;;7.33;;
7807;SDS011;3949;49.254;8.894;2022-12-07T00:04:10;9.20;;;7.40;;
7807;SDS011;3949;49.254;8.894;2022-12-07T00:06:38;9.63;;;7.47;;
7807;SDS011;3949;49.254;8.894;2022-12-07T00:09:05;8.37;;;7.53;;
7807;SDS011;3949;49.254;8.894;2022-12-07T00:11:31;8.03;;;7.10;;
7807;SDS011;3949;49.254;8.894;2022-12-07T00:13:58;9.70;;;7.73;;
7807;SDS011;3949;49.254;8.894;2022-12-07T00:16:26;9.07;;;7.13;;
7807;SDS011;3949;49.254;8.894;2022-12-07T00:18:52;9.03;;;7.23;;
7807;SDS011;3949;49.254;8.894;2022-12-07T00:21:19;9.83;;;7.53;;
7807;SDS011;3949;49.254;8.894;2022-12-07T00:23:46;9.47;;;7.47;;
7807;SDS011;3949;49.254;8.894;2022-12-07T00:26:16;11.27;;;9.53;;
7807;SDS011;3949;49.254;8.894;2022-12-07T00:28:46;10.07;;;8.20;;
7807;SDS011;3949;49.254;8.894;2022-12-07T00:31:13;9.10;;;8.00;;
7807;SDS011;3949;49.254;8.894;2022-12-07T00:33:40;10.60;;;8.27;;
7807;SDS011;3949;49.254;8.894;2022-12-07T00:36:07;8.47;;;7.57;;
7807;SDS011;3949;49.254;8.894;2022-12-07T00:38:34;9.40;;;7.47;;
7807;SDS011;3949;49.254;8.894;2022-12-07T00:41:01;9.43;;;7.30;;
7807;SDS011;3949;49.254;8.894;2022-12-07T00:43:28;8.80;;;7.03;;
7807;SDS011;3949;49.254;8.894;2022-12-07T00:45:54;9.63;;;7.13;;
7807;SDS011;3949;49.254;8.894;2022-12-07T00:48:20;10.27;;;6.93;;
7807;SDS011;3949;49.254;8.894;2022-12-07T00:50:46;8.30;;;7.47;;
7807;SDS011;3949;49.254;8.894;2022-12-07T00:53:12;9.27;;;7.57;;
7807;SDS011;3949;49.254;8.894;2022-12-07T00:55:39;10.40;;;8.27;;
7807;SDS011;3949;49.254;8.894;2022-12-07T00:58:05;9.63;;;8.30;;
7807;SDS011;3949;49.254;8.894;2022-12-07T01:00:31;10.40;;;8.20;;
7807;SDS011;3949;49.254;8.894;2022-12-07T01:02:57;10.50;;;8.60;;
7807;SDS011;3949;49.254;8.894;2022-12-07T01:05:23;9.30;;;7.63;;
7807;SDS011;3949;49.254;8.894;2022-12-07T01:07:48;9.27;;;7.57;;
7807;SDS011;3949;49.254;8.894;2022-12-07T01:10:14;9.97;;;7.80;;
7807;SDS011;3949;49.254;8.894;2022-12-07T01:12:40;8.30;;;7.00;;
7807;SDS011;3949;49.254;8.894;2022-12-07T01:15:07;12.23;;;8.30;;
7807;SDS011;3949;49.254;8.894;2022-12-07T01:17:33;10.60;;;7.83;;
7807;SDS011;3949;49.254;8.894;2022-12-07T01:19:59;10.50;;;7.90;;
7807;SDS011;3949;49.254;8.894;2022-12-07T01:22:25;10.37;;;8.13;;
7807;SDS011;3949;49.254;8.894;2022-12-07T01:24:51;11.03;;;8.30;;
7807;SDS011;3949;49.254;8.894;2022-12-07T01:27:17;21.03;;;17.20;;
7807;SDS011;3949;49.254;8.894;2022-12-07T01:29:43;11.17;;;9.47;;
7807;SDS011;3949;49.254;8.894;2022-12-07T01:32:09;10.87;;;8.80;;
7807;SDS011;3949;49.254;8.894;2022-12-07T01:34:35;11.43;;;9.23;;
7807;SDS011;3949;49.254;8.894;2022-12-07T01:37:01;9.73;;;7.97;;
7807;SDS011;3949;49.254;8.894;2022-12-07T01:39:27;12.53;;;9.60;;
7807;SDS011;3949;49.254;8.894;2022-12-07T01:41:53;11.67;;;9.03;;
7807;SDS011;3949;49.254;8.894;2022-12-07T01:44:23;12.77;;;9.23;;
7807;SDS011;3949;49.254;8.894;2022-12-07T01:46:53;10.60;;;9.23;;
7807;SDS011;3949;49.254;8.894;2022-12-07T01:51:49;11.23;;;8.23;;
7807;SDS011;3949;49.254;8.894;2022-12-07T01:54:17;11.07;;;9.30;;
7807;SDS011;3949;49.254;8.894;2022-12-07T01:56:44;9.20;;;8.17;;
7807;SDS011;3949;49.254;8.894;2022-12-07T01:59:11;9.67;;;8.37;;
7807;SDS011;3949;49.254;8.894;2022-12-07T02:01:37;11.23;;;9.17;;
7807;SDS011;3949;49.254;8.894;2022-12-07T02:04:03;11.03;;;9.10;;
7807;SDS011;3949;49.254;8.894;2022-12-07T02:06:30;9.73;;;8.00;;
7807;SDS011;3949;49.254;8.894;2022-12-07T02:08:56;9.67;;;8.47;;
7807;SDS011;3949;49.254;8.894;2022-12-07T02:11:22;11.37;;;8.47;;
7807;SDS011;3949;49.254;8.894;2022-12-07T02:13:48;11.30;;;8.50;;
7807;SDS011;3949;49.254;8.894;2022-12-07T02:16:17;11.83;;;8.97;;
7807;SDS011;3949;49.254;8.894;2022-12-07T02:19:53;11.43;;;8.33;;
7807;SDS011;3949;49.254;8.894;2022-12-07T02:24:12;11.63;;;8.43;;
7807;SDS011;3949;49.254;8.894;2022-12-07T02:26:53;9.93;;;8.20;;
7807;SDS011;3949;49.254;8.894;2022-12-07T02:29:29;9.53;;;7.27;;
7807;SDS011;3949;49.254;8.894;2022-12-07T02:34:43;9.70;;;7.90;;
7807;SDS011;3949;49.254;8.894;2022-12-07T02:37:12;9.80;;;8.10;;
7807;SDS011;3949;49.254;8.894;2022-12-07T02:39:46;13.60;;;8.37;;
7807;SDS011;3949;49.254;8.894;2022-12-07T02:42:15;9.80;;;8.10;;
7807;SDS011;3949;49.254;8.894;2022-12-07T02:44:43;10.87;;;8.93;;
7807;SDS011;3949;49.254;8.894;2022-12-07T02:47:10;11.97;;;9.37;;
7807;SDS011;3949;49.254;8.894;2022-12-07T02:49:38;12.57;;;9.57;;
7807;SDS011;3949;49.254;8.894;2022-12-07T02:52:05;13.60;;;9.87;;
7807;SDS011;3949;49.254;8.894;2022-12-07T02:54:31;11.70;;;8.63;;
7807;SDS011;3949;49.254;8.894;2022-12-07T03:02:20;11.10;;;8.17;;
7807;SDS011;3949;49.254;8.894;2022-12-07T03:04:52;10.47;;;9.00;;
7807;SDS011;3949;49.254;8.894;2022-12-07T03:07:43;8.70;;;7.73;;
7807;SDS011;3949;49.254;8.894;2022-12-07T03:10:22;9.77;;;7.53;;
7807;SDS011;3949;49.254;8.894;2022-12-07T03:13:08;11.87;;;8.13;;
7807;SDS011;3949;49.254;8.894;2022-12-07T03:15:37;10.87;;;8.73;;
7807;SDS011;3949;49.254;8.894;2022-12-07T03:18:05;11.83;;;9.27;;
7807;SDS011;3949;49.254;8.894;2022-12-07T03:20:33;14.00;;;9.57;;
7807;SDS011;3949;49.254;8.894;2022-12-07T03:23:01;14.80;;;10.57;;
7807;SDS011;3949;49.254;8.894;2022-12-07T03:25:28;11.47;;;9.20;;
7807;SDS011;3949;49.254;8.894;2022-12-07T03:27:59;11.93;;;9.17;;
7807;SDS011;3949;49.254;8.894;2022-12-07T03:30:30;13.30;;;10.07;;
7807;SDS011;3949;49.254;8.894;2022-12-07T03:32:59;12.43;;;9.37;;
7807;SDS011;3949;49.254;8.894;2022-12-07T03:38:00;12.70;;;9.47;;
7807;SDS011;3949;49.254;8.894;2022-12-07T03:40:35;11.90;;;9.00;;
7807;SDS011;3949;49.254;8.894;2022-12-07T03:43:02;10.77;;;8.53;;
7807;SDS011;3949;49.254;8.894;2022-12-07T03:45:31;12.93;;;8.83;;
7807;SDS011;3949;49.254;8.894;2022-12-07T03:50:39;12.13;;;8.57;;
7807;SDS011;3949;49.254;8.894;2022-12-07T03:53:18;11.90;;;8.60;;
7807;SDS011;3949;49.254;8.894;2022-12-07T03:55:46;10.17;;;8.20;;
7807;SDS011;3949;49.254;8.894;2022-12-07T03:58:13;12.97;;;9.83;;
7807;SDS011;3949;49.254;8.894;2022-12-07T04:00:41;10.53;;;8.90;;
7807;SDS011;3949;49.254;8.894;2022-12-07T04:03:08;16.43;;;10.37;;
7807;SDS011;3949;49.254;8.894;2022-12-07T04:05:34;12.80;;;9.83;;
7807;SDS011;3949;49.254;8.894;2022-12-07T04:08:00;12.70;;;9.47;;
7807;SDS011;3949;49.254;8.894;2022-12-07T04:10:26;13.67;;;9.70;;
7807;SDS011;3949;49.254;8.894;2022-12-07T04:12:52;10.87;;;8.67;;
7807;SDS011;3949;49.254;8.894;2022-12-07T04:15:18;12.77;;;9.57;;
7807;SDS011;3949;49.254;8.894;2022-12-07T04:17:44;12.60;;;9.53;;
7807;SDS011;3949;49.254;8.894;2022-12-07T04:20:10;11.87;;;9.23;;
7807;SDS011;3949;49.254;8.894;2022-12-07T04:22:36;11.40;;;9.27;;
7807;SDS011;3949;49.254;8.894;2022-12-07T04:25:02;12.00;;;9.00;;
7807;SDS011;3949;49.254;8.894;2022-12-07T04:27:28;10.50;;;8.40;;
7807;SDS011;3949;49.254;8.894;2022-12-07T04:29:54;15.87;;;9.77;;
7807;SDS011;3949;49.254;8.894;2022-12-07T04:32:21;12.67;;;9.30;;
7807;SDS011;3949;49.254;8.894;2022-12-07T04:34:47;14.53;;;9.97;;
7807;SDS011;3949;49.254;8.894;2022-12-07T04:37:12;11.80;;;9.60;;
7807;SDS011;3949;49.254;8.894;2022-12-07T04:39:38;15.37;;;10.53;;
7807;SDS011;3949;49.254;8.894;2022-12-07T04:42:04;11.83;;;9.30;;
7807;SDS011;3949;49.254;8.894;2022-12-07T04:44:30;12.80;;;9.80;;
7807;SDS011;3949;49.254;8.894;2022-12-07T04:46:57;12.20;;;9.37;;
7807;SDS011;3949;49.254;8.894;2022-12-07T04:49:23;12.57;;;10.40;;
7807;SDS011;3949;49.254;8.894;2022-12-07T04:51:49;11.27;;;9.50;;
7807;SDS011;3949;49.254;8.894;2022-12-07T04:54:15;14.90;;;9.80;;
7807;SDS011;3949;49.254;8.894;2022-12-07T04:56:41;14.03;;;10.00;;
7807;SDS011;3949;49.254;8.894;2022-12-07T04:59:08;12.27;;;9.47;;
7807;SDS011;3949;49.254;8.894;2022-12-07T05:01:35;11.77;;;9.27;;
7807;SDS011;3949;49.254;8.894;2022-12-07T05:04:01;12.90;;;9.80;;
7807;SDS011;3949;49.254;8.894;2022-12-07T05:06:27;12.83;;;9.80;;
7807;SDS011;3949;49.254;8.894;2022-12-07T05:08:53;13.53;;;10.57;;
7807;SDS011;3949;49.254;8.894;2022-12-07T05:11:19;14.47;;;10.57;;
7807;SDS011;3949;49.254;8.894;2022-12-07T05:14:04;13.77;;;9.83;;
7807;SDS011;3949;49.254;8.894;2022-12-07T05:16:30;13.77;;;9.90;;
7807;SDS011;3949;49.254;8.894;2022-12-07T05:18:56;12.10;;;10.03;;
7807;SDS011;3949;49.254;8.894;2022-12-07T05:21:22;14.70;;;10.40;;
7807;SDS011;3949;49.254;8.894;2022-12-07T05:23:48;14.77;;;10.37;;
7807;SDS011;3949;49.254;8.894;2022-12-07T05:26:14;13.43;;;10.87;;
7807;SDS011;3949;49.254;8.894;2022-12-07T05:28:40;13.40;;;10.40;;
7807;SDS011;3949;49.254;8.894;2022-12-07T05:31:06;13.30;;;9.90;;
7807;SDS011;3949;49.254;8.894;2022-12-07T05:33:32;12.37;;;8.77;;
7807;SDS011;3949;49.254;8.894;2022-12-07T05:35:58;11.80;;;9.53;;
7807;SDS011;3949;49.254;8.894;2022-12-07T05:38:30;16.53;;;11.27;;
7807;SDS011;3949;49.254;8.894;2022-12-07T05:40:59;22.90;;;14.37;;
7807;SDS011;3949;49.254;8.894;2022-12-07T05:43:26;12.83;;;9.97;;
7807;SDS011;3949;49.254;8.894;2022-12-07T05:45:52;11.20;;;8.80;;
7807;SDS011;3949;49.254;8.894;2022-12-07T05:48:18;12.63;;;9.17;;
7807;SDS011;3949;49.254;8.894;2022-12-07T05:50:44;13.60;;;10.13;;
7807;SDS011;3949;49.254;8.894;2022-12-07T05:53:12;12.53;;;9.47;;
7807;SDS011;3949;49.254;8.894;2022-12-07T05:55:38;11.63;;;9.17;;
7807;SDS011;3949;49.254;8.894;2022-12-07T05:58:04;13.63;;;10.00;;
7807;SDS011;3949;49.254;8.894;2022-12-07T06:00:49;13.23;;;10.67;;
7807;SDS011;3949;49.254;8.894;2022-12-07T06:03:15;15.90;;;9.70;;
7807;SDS011;3949;49.254;8.894;2022-12-07T06:05:41;11.67;;;10.10;;
7807;SDS011;3949;49.254;8.894;2022-12-07T06:08:07;14.57;;;10.27;;
7807;SDS011;3949;49.254;8.894;2022-12-07T06:10:33;13.40;;;10.03;;
7807;SDS011;3949;49.254;8.894;2022-12-07T06:12:59;13.33;;;10.23;;
7807;SDS011;3949;49.254;8.894;2022-12-07T06:15:25;13.60;;;10.27;;
7807;SDS011;3949;49.254;8.894;2022-12-07T06:17:51;12.17;;;9.87;;
7807;SDS011;3949;49.254;8.894;2022-12-07T06:20:17;13.53;;;10.37;;
7807;SDS011;3949;49.254;8.894;2022-12-07T06:22:43;15.30;;;10.13;;
7807;SDS011;3949;49.254;8.894;2022-12-07T06:25:09;13.47;;;9.67;;
7807;SDS011;3949;49.254;8.894;2022-12-07T06:27:35;12.13;;;9.70;;
7807;SDS011;3949;49.254;8.894;2022-12-07T06:30:01;11.60;;;8.93;;
7807;SDS011;3949;49.254;8.894;2022-12-07T06:32:31;12.30;;;9.43;;
7807;SDS011;3949;49.254;8.894;2022-12-07T06:34:57;12.93;;;9.93;;
7807;SDS011;3949;49.254;8.894;2022-12-07T06:37:23;11.90;;;9.43;;
7807;SDS011;3949;49.254;8.894;2022-12-07T06:39:49;13.77;;;10.57;;
7807;SDS011;3949;49.254;8.894;2022-12-07T06:42:15;12.90;;;9.50;;
7807;SDS011;3949;49.254;8.894;2022-12-07T06:44:41;12.53;;;10.40;;
7807;SDS011;3949;49.254;8.894;2022-12-07T06:47:07;12.57;;;10.10;;
7807;SDS011;3949;49.254;8.894;2022-12-07T06:49:34;13.23;;;10.67;;
7807;SDS011;3949;49.254;8.894;2022-12-07T06:52:00;11.97;;;9.70;;
7807;SDS011;3949;49.254;8.894;2022-12-07T06:54:26;11.57;;;9.67;;
7807;SDS011;3949;49.254;8.894;2022-12-07T06:56:55;12.67;;;10.17;;
7807;SDS011;3949;49.254;8.894;2022-12-07T06:59:21;13.00;;;10.47;;
7807;SDS011;3949;49.254;8.894;2022-12-07T07:01:47;12.83;;;10.03;;
7807;SDS011;3949;49.254;8.894;2022-12-07T07:04:13;11.50;;;10.00;;
7807;SDS011;3949;49.254;8.894;2022-12-07T07:06:39;14.63;;;11.87;;
7807;SDS011;3949;49.254;8.894;2022-12-07T07:09:05;13.60;;;12.20;;
7807;SDS011;3949;49.254;8.894;2022-12-07T07:11:31;12.40;;;10.40;;
7807;SDS011;3949;49.254;8.894;2022-12-07T07:13:57;12.53;;;9.57;;
7807;SDS011;3949;49.254;8.894;2022-12-07T07:16:27;13.67;;;9.63;;
7807;SDS011;3949;49.254;8.894;2022-12-07T07:18:53;12.63;;;10.00;;
7807;SDS011;3949;49.254;8.894;2022-12-07T07:21:19;13.80;;;10.70;;
7807;SDS011;3949;49.254;8.894;2022-12-07T07:23:45;14.50;;;10.20;;
7807;SDS011;3949;49.254;8.894;2022-12-07T07:26:11;13.43;;;10.43;;
7807;SDS011;3949;49.254;8.894;2022-12-07T07:28:37;13.30;;;10.60;;
7807;SDS011;3949;49.254;8.894;2022-12-07T07:31:03;14.30;;;11.03;;
7807;SDS011;3949;49.254;8.894;2022-12-07T07:33:29;14.30;;;10.60;;
7807;SDS011;3949;49.254;8.894;2022-12-07T07:35:55;13.63;;;11.00;;
7807;SDS011;3949;49.254;8.894;2022-12-07T07:38:21;13.53;;;10.50;;
7807;SDS011;3949;49.254;8.894;2022-12-07T07:40:47;13.87;;;10.77;;
7807;SDS011;3949;49.254;8.894;2022-12-07T07:43:13;13.90;;;9.97;;
7807;SDS011;3949;49.254;8.894;2022-12-07T07:45:39;13.67;;;10.63;;
7807;SDS011;3949;49.254;8.894;2022-12-07T07:48:05;13.17;;;10.77;;
7807;SDS011;3949;49.254;8.894;2022-12-07T07:50:31;15.80;;;10.47;;
7807;SDS011;3949;49.254;8.894;2022-12-07T07:52:57;13.67;;;10.17;;
7807;SDS011;3949;49.254;8.894;2022-12-07T07:55:23;13.93;;;10.47;;
7807;SDS011;3949;49.254;8.894;2022-12-07T07:57:49;11.67;;;9.63;;
7807;SDS011;3949;49.254;8.894;2022-12-07T08:00:16;12.93;;;10.40;;
7807;SDS011;3949;49.254;8.894;2022-12-07T08:02:42;14.43;;;10.20;;
7807;SDS011;3949;49.254;8.894;2022-12-07T08:05:08;12.63;;;9.97;;
7807;SDS011;3949;49.254;8.894;2022-12-07T08:07:35;10.70;;;9.27;;
7807;SDS011;3949;49.254;8.894;2022-12-07T08:10:01;12.87;;;9.40;;
7807;SDS011;3949;49.254;8.894;2022-12-07T08:12:27;13.87;;;10.77;;
7807;SDS011;3949;49.254;8.894;2022-12-07T08:14:53;15.40;;;12.10;;
7807;SDS011;3949;49.254;8.894;2022-12-07T08:17:19;13.27;;;10.57;;
7807;SDS011;3949;49.254;8.894;2022-12-07T08:19:45;12.03;;;9.60;;
7807;SDS011;3949;49.254;8.894;2022-12-07T08:22:11;12.43;;;10.43;;
7807;SDS011;3949;49.254;8.894;2022-12-07T08:24:37;11.87;;;9.80;;
7807;SDS011;3949;49.254;8.894;2022-12-07T08:27:03;12.97;;;9.83;;
7807;SDS011;3949;49.254;8.894;2022-12-07T08:29:29;11.93;;;9.60;;
7807;SDS011;3949;49.254;8.894;2022-12-07T08:31:55;11.73;;;9.20;;
7807;SDS011;3949;49.254;8.894;2022-12-07T08:34:21;14.03;;;9.57;;
7807;SDS011;3949;49.254;8.894;2022-12-07T08:36:47;11.53;;;9.67;;
7807;SDS011;3949;49.254;8.894;2022-12-07T08:39:13;11.23;;;9.00;;
7807;SDS011;3949;49.254;8.894;2022-12-07T08:41:39;12.37;;;9.10;;
7807;SDS011;3949;49.254;8.894;2022-12-07T08:44:05;12.53;;;9.80;;
7807;SDS011;3949;49.254;8.894;2022-12-07T08:46:35;11.93;;;9.63;;
7807;SDS011;3949;49.254;8.894;2022-12-07T08:49:07;12.17;;;9.57;;
7807;SDS011;3949;49.254;8.894;2022-12-07T08:51:35;10.70;;;8.97;;
7807;SDS011;3949;49.254;8.894;2022-12-07T08:54:02;11.70;;;9.27;;
7807;SDS011;3949;49.254;8.894;2022-12-07T08:56:29;11.60;;;9.77;;
7807;SDS011;3949;49.254;8.894;2022-12-07T08:58:55;16.23;;;12.57;;
7807;SDS011;3949;49.254;8.894;2022-12-07T09:01:22;12.67;;;9.80;;
7807;SDS011;3949;49.254;8.894;2022-12-07T09:03:48;10.67;;;9.23;;
7807;SDS011;3949;49.254;8.894;2022-12-07T09:06:14;12.67;;;9.70;;
7807;SDS011;3949;49.254;8.894;2022-12-07T09:08:42;15.47;;;11.10;;
7807;SDS011;3949;49.254;8.894;2022-12-07T09:11:09;11.67;;;9.23;;
7807;SDS011;3949;49.254;8.894;2022-12-07T09:13:35;10.50;;;9.00;;
7807;SDS011;3949;49.254;8.894;2022-12-07T09:16:01;17.07;;;12.10;;
7807;SDS011;3949;49.254;8.894;2022-12-07T09:18:27;17.33;;;11.03;;
7807;SDS011;3949;49.254;8.894;2022-12-07T09:20:53;14.40;;;10.90;;
7807;SDS011;3949;49.254;8.894;2022-12-07T09:23:19;10.67;;;9.57;;
7807;SDS011;3949;49.254;8.894;2022-12-07T09:25:45;11.43;;;9.03;;
7807;SDS011;3949;49.254;8.894;2022-12-07T09:28:11;10.83;;;9.00;;
7807;SDS011;3949;49.254;8.894;2022-12-07T09:30:37;11.43;;;8.80;;
7807;SDS011;3949;49.254;8.894;2022-12-07T09:33:03;10.50;;;8.70;;
7807;SDS011;3949;49.254;8.894;2022-12-07T09:35:29;11.93;;;9.20;;
7807;SDS011;3949;49.254;8.894;2022-12-07T09:37:55;10.17;;;8.03;;
7807;SDS011;3949;49.254;8.894;2022-12-07T09:40:22;9.53;;;7.83;;
7807;SDS011;3949;49.254;8.894;2022-12-07T09:42:49;11.67;;;9.63;;
7807;SDS011;3949;49.254;8.894;2022-12-07T09:45:18;10.83;;;9.20;;
7807;SDS011;3949;49.254;8.894;2022-12-07T09:47:45;10.63;;;9.13;;
7807;SDS011;3949;49.254;8.894;2022-12-07T09:50:16;11.40;;;9.63;;
7807;SDS011;3949;49.254;8.894;2022-12-07T09:52:43;11.37;;;9.47;;
7807;SDS011;3949;49.254;8.894;2022-12-07T09:55:12;10.70;;;9.23;;
7807;SDS011;3949;49.254;8.894;2022-12-07T09:57:38;14.13;;;10.93;;
7807;SDS011;3949;49.254;8.894;2022-12-07T10:00:07;12.03;;;9.23;;
7807;SDS011;3949;49.254;8.894;2022-12-07T10:05:03;11.30;;;9.27;;
7807;SDS011;3949;49.254;8.894;2022-12-07T10:07:29;11.63;;;9.67;;
7807;SDS011;3949;49.254;8.894;2022-12-07T10:09:55;11.77;;;9.40;;
7807;SDS011;3949;49.254;8.894;2022-12-07T10:12:21;11.90;;;9.57;;
7807;SDS011;3949;49.254;8.894;2022-12-07T10:14:54;11.43;;;8.87;;
7807;SDS011;3949;49.254;8.894;2022-12-07T10:17:31;11.00;;;9.17;;
7807;SDS011;3949;49.254;8.894;2022-12-07T10:20:18;10.30;;;9.20;;
7807;SDS011;3949;49.254;8.894;2022-12-07T10:23:02;12.53;;;10.03;;
7807;SDS011;3949;49.254;8.894;2022-12-07T10:25:30;11.60;;;9.23;;
7807;SDS011;3949;49.254;8.894;2022-12-07T10:28:01;10.73;;;9.00;;
7807;SDS011;3949;49.254;8.894;2022-12-07T10:30:28;11.48;;;10.25;;
7807;SDS011;3949;49.254;8.894;2022-12-07T10:32:54;9.87;;;8.90;;
7807;SDS011;3949;49.254;8.894;2022-12-07T10:35:29;12.33;;;9.77;;
7807;SDS011;3949;49.254;8.894;2022-12-07T10:37:57;11.77;;;9.23;;
7807;SDS011;3949;49.254;8.894;2022-12-07T10:40:28;9.80;;;8.23;;
7807;SDS011;3949;49.254;8.894;2022-12-07T10:43:00;10.57;;;8.40;;
7807;SDS011;3949;49.254;8.894;2022-12-07T10:45:27;11.63;;;8.60;;
7807;SDS011;3949;49.254;8.894;2022-12-07T10:48:10;10.27;;;8.90;;
7807;SDS011;3949;49.254;8.894;2022-12-07T10:50:48;9.10;;;7.73;;
7807;SDS011;3949;49.254;8.894;2022-12-07T11:08:39;8.70;;;7.80;;
7807;SDS011;3949;49.254;8.894;2022-12-07T11:13:39;9.97;;;8.60;;
7807;SDS011;3949;49.254;8.894;2022-12-07T11:21:30;12.43;;;8.63;;
7807;SDS011;3949;49.254;8.894;2022-12-07T11:24:03;9.63;;;7.87;;
7807;SDS011;3949;49.254;8.894;2022-12-07T11:26:46;10.90;;;8.97;;
7807;SDS011;3949;49.254;8.894;2022-12-07T11:29:19;11.53;;;8.90;;
7807;SDS011;3949;49.254;8.894;2022-12-07T11:37:12;10.40;;;8.60;;
7807;SDS011;3949;49.254;8.894;2022-12-07T11:39:41;9.60;;;7.70;;
7807;SDS011;3949;49.254;8.894;2022-12-07T11:42:14;11.23;;;8.93;;
7807;SDS011;3949;49.254;8.894;2022-12-07T11:47:08;10.67;;;8.33;;
7807;SDS011;3949;49.254;8.894;2022-12-07T11:52:05;9.93;;;8.80;;
7807;SDS011;3949;49.254;8.894;2022-12-07T11:54:35;9.80;;;8.50;;
7807;SDS011;3949;49.254;8.894;2022-12-07T11:57:09;9.63;;;8.37;;
7807;SDS011;3949;49.254;8.894;2022-12-07T11:59:39;11.47;;;8.20;;
7807;SDS011;3949;49.254;8.894;2022-12-07T12:02:15;10.20;;;8.63;;
7807;SDS011;3949;49.254;8.894;2022-12-07T12:07:26;9.37;;;8.07;;
7807;SDS011;3949;49.254;8.894;2022-12-07T12:09:54;10.25;;;9.23;;
7807;SDS011;3949;49.254;8.894;2022-12-07T12:12:45;9.07;;;8.17;;
7807;SDS011;3949;49.254;8.894;2022-12-07T12:20:20;9.40;;;7.80;;
7807;SDS011;3949;49.254;8.894;2022-12-07T12:22:58;9.20;;;7.87;;
7807;SDS011;3949;49.254;8.894;2022-12-07T12:25:29;8.30;;;7.50;;
7807;SDS011;3949;49.254;8.894;2022-12-07T12:27:57;8.90;;;8.00;;
7807;SDS011;3949;49.254;8.894;2022-12-07T12:30:29;9.75;;;8.75;;
7807;SDS011;3949;49.254;8.894;2022-12-07T12:33:01;9.17;;;7.87;;
7807;SDS011;3949;49.254;8.894;2022-12-07T12:40:42;10.77;;;7.87;;
7807;SDS011;3949;49.254;8.894;2022-12-07T12:46:34;9.20;;;8.20;;
7807;SDS011;3949;49.254;8.894;2022-12-07T12:48:39;8.93;;;8.03;;
7807;SDS011;3949;49.254;8.894;2022-12-07T12:53:50;8.43;;;7.20;;
7807;SDS011;3949;49.254;8.894;2022-12-07T12:57:18;9.43;;;8.30;;
7807;SDS011;3949;49.254;8.894;2022-12-07T13:01:47;9.13;;;6.93;;
7807;SDS011;3949;49.254;8.894;2022-12-07T13:04:18;10.17;;;8.50;;
7807;SDS011;3949;49.254;8.894;2022-12-07T13:06:47;10.10;;;8.47;;
7807;SDS011;3949;49.254;8.894;2022-12-07T13:09:33;10.80;;;7.90;;
7807;SDS011;3949;49.254;8.894;2022-12-07T13:12:21;9.37;;;8.40;;
7807;SDS011;3949;49.254;8.894;2022-12-07T13:14:54;9.80;;;8.03;;
7807;SDS011;3949;49.254;8.894;2022-12-07T13:20:04;10.23;;;7.93;;
7807;SDS011;3949;49.254;8.894;2022-12-07T13:25:05;11.57;;;8.73;;
7807;SDS011;3949;49.254;8.894;2022-12-07T13:27:33;10.57;;;8.50;;
7807;SDS011;3949;49.254;8.894;2022-12-07T13:30:00;15.00;;;9.03;;
7807;SDS011;3949;49.254;8.894;2022-12-07T13:32:27;9.57;;;8.25;;
7807;SDS011;3949;49.254;8.894;2022-12-07T13:34:54;9.23;;;8.23;;
7807;SDS011;3949;49.254;8.894;2022-12-07T13:37:23;9.93;;;7.97;;
7807;SDS011;3949;49.254;8.894;2022-12-07T13:39:51;10.93;;;8.63;;
7807;SDS011;3949;49.254;8.894;2022-12-07T13:44:49;10.90;;;8.63;;
7807;SDS011;3949;49.254;8.894;2022-12-07T13:47:16;10.47;;;8.07;;
7807;SDS011;3949;49.254;8.894;2022-12-07T13:49:49;9.70;;;8.60;;
7807;SDS011;3949;49.254;8.894;2022-12-07T13:52:19;9.50;;;8.50;;
7807;SDS011;3949;49.254;8.894;2022-12-07T13:54:46;9.57;;;8.57;;
7807;SDS011;3949;49.254;8.894;2022-12-07T13:57:13;11.50;;;7.80;;
7807;SDS011;3949;49.254;8.894;2022-12-07T13:59:40;11.23;;;8.63;;
7807;SDS011;3949;49.254;8.894;2022-12-07T14:04:45;11.43;;;8.67;;
7807;SDS011;3949;49.254;8.894;2022-12-07T14:07:24;10.13;;;8.60;;
7807;SDS011;3949;49.254;8.894;2022-12-07T14:10:03;9.97;;;8.63;;
7807;SDS011;3949;49.254;8.894;2022-12-07T14:12:30;10.43;;;8.30;;
7807;SDS011;3949;49.254;8.894;2022-12-07T14:14:57;11.80;;;8.53;;
7807;SDS011;3949;49.254;8.894;2022-12-07T14:17:24;12.90;;;8.40;;
7807;SDS011;3949;49.254;8.894;2022-12-07T14:24:46;9.20;;;8.13;;
7807;SDS011;3949;49.254;8.894;2022-12-07T14:27:22;9.90;;;8.23;;
7807;SDS011;3949;49.254;8.894;2022-12-07T14:29:50;9.80;;;7.97;;
7807;SDS011;3949;49.254;8.894;2022-12-07T14:32:26;9.53;;;7.80;;
7807;SDS011;3949;49.254;8.894;2022-12-07T14:35:00;10.33;;;8.67;;
7807;SDS011;3949;49.254;8.894;2022-12-07T14:37:26;10.27;;;8.30;;
7807;SDS011;3949;49.254;8.894;2022-12-07T14:39:53;13.40;;;9.17;;
7807;SDS011;3949;49.254;8.894;2022-12-07T14:42:19;11.07;;;8.47;;
7807;SDS011;3949;49.254;8.894;2022-12-07T14:44:45;11.63;;;8.33;;
7807;SDS011;3949;49.254;8.894;2022-12-07T14:47:11;11.20;;;8.50;;
7807;SDS011;3949;49.254;8.894;2022-12-07T14:49:37;10.37;;;8.20;;
7807;SDS011;3949;49.254;8.894;2022-12-07T14:52:04;11.20;;;9.27;;
7807;SDS011;3949;49.254;8.894;2022-12-07T14:54:32;10.87;;;9.20;;
7807;SDS011;3949;49.254;8.894;2022-12-07T14:56:58;12.33;;;8.90;;
7807;SDS011;3949;49.254;8.894;2022-12-07T14:59:24;11.97;;;9.17;;
7807;SDS011;3949;49.254;8.894;2022-12-07T15:01:50;14.90;;;9.67;;
7807;SDS011;3949;49.254;8.894;2022-12-07T15:04:16;13.37;;;10.87;;
7807;SDS011;3949;49.254;8.894;2022-12-07T15:06:48;19.37;;;15.03;;
7807;SDS011;3949;49.254;8.894;2022-12-07T15:09:19;13.00;;;10.33;;
7807;SDS011;3949;49.254;8.894;2022-12-07T15:11:45;13.20;;;10.03;;
7807;SDS011;3949;49.254;8.894;2022-12-07T15:14:11;15.50;;;10.37;;
7807;SDS011;3949;49.254;8.894;2022-12-07T15:16:38;11.47;;;9.37;;
7807;SDS011;3949;49.254;8.894;2022-12-07T15:19:05;13.97;;;10.50;;
7807;SDS011;3949;49.254;8.894;2022-12-07T15:21:31;19.83;;;15.47;;
7807;SDS011;3949;49.254;8.894;2022-12-07T15:23:57;18.87;;;15.47;;
7807;SDS011;3949;49.254;8.894;2022-12-07T15:26:23;20.17;;;15.73;;
7807;SDS011;3949;49.254;8.894;2022-12-07T15:28:49;14.33;;;11.33;;
7807;SDS011;3949;49.254;8.894;2022-12-07T15:31:16;24.37;;;18.90;;
7807;SDS011;3949;49.254;8.894;2022-12-07T15:33:43;25.17;;;18.20;;
7807;SDS011;3949;49.254;8.894;2022-12-07T15:36:13;13.27;;;10.30;;
7807;SDS011;3949;49.254;8.894;2022-12-07T15:38:43;13.27;;;10.97;;
7807;SDS011;3949;49.254;8.894;2022-12-07T15:41:09;13.20;;;10.20;;
7807;SDS011;3949;49.254;8.894;2022-12-07T15:43:35;13.37;;;11.03;;
7807;SDS011;3949;49.254;8.894;2022-12-07T15:46:20;12.30;;;10.43;;
7807;SDS011;3949;49.254;8.894;2022-12-07T15:48:46;11.33;;;9.83;;
7807;SDS011;3949;49.254;8.894;2022-12-07T15:51:12;28.87;;;20.93;;
7807;SDS011;3949;49.254;8.894;2022-12-07T15:53:39;20.13;;;15.37;;
7807;SDS011;3949;49.254;8.894;2022-12-07T15:56:05;18.63;;;10.57;;
7807;SDS011;3949;49.254;8.894;2022-12-07T15:58:32;11.73;;;9.57;;
7807;SDS011;3949;49.254;8.894;2022-12-07T16:00:58;12.30;;;10.10;;
7807;SDS011;3949;49.254;8.894;2022-12-07T16:03:24;12.67;;;10.00;;
7807;SDS011;3949;49.254;8.894;2022-12-07T16:05:50;11.70;;;9.47;;
7807;SDS011;3949;49.254;8.894;2022-12-07T16:08:17;13.83;;;11.07;;
7807;SDS011;3949;49.254;8.894;2022-12-07T16:10:44;16.63;;;12.17;;
7807;SDS011;3949;49.254;8.894;2022-12-07T16:13:10;14.60;;;11.50;;
7807;SDS011;3949;49.254;8.894;2022-12-07T16:15:39;15.40;;;11.13;;
7807;SDS011;3949;49.254;8.894;2022-12-07T16:18:05;15.70;;;11.47;;
7807;SDS011;3949;49.254;8.894;2022-12-07T16:20:32;19.17;;;14.27;;
7807;SDS011;3949;49.254;8.894;2022-12-07T16:22:58;14.33;;;11.53;;
7807;SDS011;3949;49.254;8.894;2022-12-07T16:25:24;13.77;;;11.73;;
7807;SDS011;3949;49.254;8.894;2022-12-07T16:27:50;13.73;;;10.63;;
7807;SDS011;3949;49.254;8.894;2022-12-07T16:30:16;12.50;;;10.00;;
7807;SDS011;3949;49.254;8.894;2022-12-07T16:32:42;11.43;;;8.77;;
7807;SDS011;3949;49.254;8.894;2022-12-07T16:35:09;11.17;;;9.20;;
7807;SDS011;3949;49.254;8.894;2022-12-07T16:37:35;12.43;;;9.30;;